createdAt,value
2022-08-18T00:00:33.896Z,21.04
2022-08-18T00:01:33.964Z,21.01
2022-08-18T00:02:33.954Z,21.01
2022-08-18T00:03:56.219Z,21.03
2022-08-18T00:04:35.924Z,21.01
2022-08-18T00:05:33.825Z,21.01
2022-08-18T00:06:33.810Z,21.01
2022-08-18T00:07:33.787Z,21.05
2022-08-18T00:08:37.334Z,21.04
2022-08-18T00:09:33.758Z,21.07
2022-08-18T00:10:33.742Z,21.10
2022-08-18T00:11:41.712Z,21.10
2022-08-18T00:12:33.718Z,21.13
2022-08-18T00:13:33.694Z,21.08
2022-08-18T00:14:33.678Z,21.11
2022-08-18T00:15:48.773Z,21.11
2022-08-18T00:16:33.652Z,21.15
2022-08-18T00:17:33.632Z,21.13
2022-08-18T00:18:33.620Z,21.25
2022-08-18T00:19:46.866Z,21.28
2022-08-18T00:20:33.586Z,21.30
2022-08-18T00:21:33.571Z,21.33
2022-08-18T00:22:33.557Z,21.38
2022-08-18T00:23:33.537Z,21.33
2022-08-18T00:24:33.524Z,21.20
2022-08-18T00:25:33.512Z,21.28
2022-08-18T00:26:36.808Z,21.23
2022-08-18T00:27:33.478Z,21.30
2022-08-18T00:28:33.466Z,21.23
2022-08-18T00:29:33.450Z,21.19
2022-08-18T00:30:33.432Z,21.17
2022-08-18T00:31:33.413Z,21.10
2022-08-18T00:32:33.402Z,21.11
2022-08-18T00:33:33.382Z,21.08
2022-08-18T00:34:33.369Z,21.19
2022-08-18T00:35:33.352Z,21.05
2022-08-18T00:36:33.340Z,21.04
2022-08-18T00:37:33.320Z,20.96
2022-08-18T00:38:33.306Z,20.98
2022-08-18T00:39:34.216Z,21.00
2022-08-18T00:40:37.686Z,20.93
2022-08-18T00:41:33.259Z,20.89
2022-08-18T00:42:33.247Z,20.88
2022-08-18T00:43:33.228Z,20.86
2022-08-18T00:44:33.219Z,20.85
2022-08-18T00:45:33.198Z,20.85
2022-08-18T00:46:33.184Z,20.77
2022-08-18T00:47:42.633Z,20.78
2022-08-18T00:48:33.150Z,20.78
2022-08-18T00:49:33.133Z,20.82
2022-08-18T00:50:33.121Z,20.74
2022-08-18T00:51:33.107Z,20.73
2022-08-18T00:52:33.088Z,20.75
2022-08-18T00:53:33.071Z,20.75
2022-08-18T00:54:33.056Z,20.74
2022-08-18T00:55:33.040Z,20.70
2022-08-18T00:56:33.028Z,20.66
2022-08-18T00:57:33.009Z,20.64
2022-08-18T00:58:35.628Z,20.64
2022-08-18T00:59:32.979Z,20.60
2022-08-18T01:00:33.021Z,20.58
2022-08-18T01:01:32.946Z,20.63
2022-08-18T01:02:32.933Z,20.56
2022-08-18T01:03:32.918Z,20.52
2022-08-18T01:04:32.899Z,20.56
2022-08-18T01:05:32.885Z,20.56
2022-08-18T01:06:32.869Z,20.44
2022-08-18T01:07:32.852Z,20.50
2022-08-18T01:08:32.839Z,20.50
2022-08-18T01:09:32.820Z,20.52
2022-08-18T01:10:32.808Z,20.58
2022-08-18T01:11:32.789Z,20.55
2022-08-18T01:12:45.592Z,20.42
2022-08-18T01:13:32.757Z,20.55
2022-08-18T01:14:32.754Z,20.59
2022-08-18T01:15:32.724Z,20.55
2022-08-18T01:16:32.711Z,20.60
2022-08-18T01:17:32.694Z,20.63
2022-08-18T01:18:32.680Z,20.60
2022-08-18T01:19:32.662Z,20.56
2022-08-18T01:20:32.650Z,20.56
2022-08-18T01:21:32.650Z,20.66
2022-08-18T01:22:32.617Z,20.67
2022-08-18T01:23:32.611Z,20.68
2022-08-18T01:24:32.594Z,20.67
2022-08-18T01:25:32.575Z,20.68
2022-08-18T01:26:32.559Z,20.67
2022-08-18T01:27:32.541Z,20.68
2022-08-18T01:28:32.526Z,20.66
2022-08-18T01:29:32.506Z,20.67
2022-08-18T01:30:32.491Z,20.70
2022-08-18T01:31:32.477Z,20.73
2022-08-18T01:32:32.463Z,20.60
2022-08-18T01:33:32.467Z,20.66
2022-08-18T01:34:32.428Z,20.63
2022-08-18T01:35:37.117Z,20.63
2022-08-18T01:36:32.400Z,20.70
2022-08-18T01:37:32.381Z,20.66
2022-08-18T01:38:32.366Z,20.66
2022-08-18T01:41:21.023Z,20.63
2022-08-18T01:41:23.344Z,20.73
2022-08-18T01:41:32.385Z,20.67
2022-08-18T01:42:32.320Z,20.66
2022-08-18T01:43:32.286Z,20.71
2022-08-18T01:44:32.272Z,20.70
2022-08-18T01:45:32.256Z,20.75
2022-08-18T01:46:32.241Z,20.78
2022-08-18T01:47:33.005Z,20.71
2022-08-18T01:48:32.211Z,20.82
2022-08-18T01:49:32.192Z,20.74
2022-08-18T01:50:32.179Z,20.70
2022-08-18T01:51:39.921Z,20.70
2022-08-18T01:52:32.149Z,20.77
2022-08-18T01:53:32.128Z,20.75
2022-08-18T01:54:32.115Z,20.74
2022-08-18T01:55:32.099Z,20.67
2022-08-18T01:56:32.086Z,20.75
2022-08-18T01:57:32.065Z,20.78
2022-08-18T01:58:32.051Z,20.70
2022-08-18T01:59:32.035Z,20.71
2022-08-18T02:00:32.022Z,20.78
2022-08-18T02:01:36.471Z,20.77
2022-08-18T02:02:31.989Z,20.75
2022-08-18T02:03:31.974Z,20.73
2022-08-18T02:04:35.522Z,20.75
2022-08-18T02:05:31.941Z,20.73
2022-08-18T02:06:33.508Z,20.74
2022-08-18T02:07:36.477Z,20.75
2022-08-18T02:08:31.895Z,20.71
2022-08-18T02:09:31.878Z,20.75
2022-08-18T02:10:31.863Z,20.80
2022-08-18T02:11:31.842Z,20.75
2022-08-18T02:12:31.837Z,20.71
2022-08-18T02:13:31.817Z,20.75
2022-08-18T02:14:31.798Z,20.77
2022-08-18T02:15:31.781Z,20.71
2022-08-18T02:16:31.771Z,20.82
2022-08-18T02:17:31.754Z,20.71
2022-08-18T02:18:47.371Z,20.78
2022-08-18T02:19:31.719Z,20.93
2022-08-18T02:20:31.706Z,20.92
2022-08-18T02:21:31.692Z,20.95
2022-08-18T02:22:31.673Z,21.05
2022-08-18T02:23:31.660Z,20.96
2022-08-18T02:24:31.643Z,21.03
2022-08-18T02:25:31.626Z,21.01
2022-08-18T02:26:31.610Z,21.13
2022-08-18T02:27:31.594Z,21.14
2022-08-18T02:28:31.580Z,21.13
2022-08-18T02:29:31.583Z,21.14
2022-08-18T02:30:31.555Z,21.14
2022-08-18T02:31:31.534Z,21.11
2022-08-18T02:32:31.517Z,21.11
2022-08-18T02:33:31.501Z,21.15
2022-08-18T02:34:31.488Z,21.14
2022-08-18T02:35:31.474Z,21.15
2022-08-18T02:36:31.456Z,21.19
2022-08-18T02:37:31.438Z,21.22
2022-08-18T02:38:33.460Z,21.23
2022-08-18T02:39:31.481Z,21.32
2022-08-18T02:40:31.391Z,21.30
2022-08-18T02:41:31.407Z,21.23
2022-08-18T02:42:31.361Z,21.25
2022-08-18T02:43:36.233Z,21.26
2022-08-18T02:44:31.328Z,21.28
2022-08-18T02:45:31.313Z,21.28
2022-08-18T02:46:31.578Z,21.30
2022-08-18T02:47:33.673Z,21.26
2022-08-18T02:48:31.267Z,21.25
2022-08-18T02:49:31.247Z,21.29
2022-08-18T02:50:31.234Z,21.23
2022-08-18T02:51:31.216Z,21.25
2022-08-18T02:52:31.204Z,21.29
2022-08-18T02:53:31.186Z,21.25
2022-08-18T02:54:31.178Z,21.28
2022-08-18T02:55:31.153Z,21.33
2022-08-18T02:56:32.741Z,21.29
2022-08-18T02:57:31.127Z,21.35
2022-08-18T02:58:33.657Z,21.32
2022-08-18T02:59:31.898Z,21.30
2022-08-18T03:00:31.077Z,21.37
2022-08-18T03:01:31.118Z,21.33
2022-08-18T03:02:31.046Z,21.37
2022-08-18T03:03:31.030Z,21.40
2022-08-18T03:04:31.013Z,21.35
2022-08-18T03:05:30.997Z,21.38
2022-08-18T03:06:30.982Z,21.35
2022-08-18T03:07:30.966Z,21.37
2022-08-18T03:08:30.950Z,21.35
2022-08-18T03:09:30.934Z,21.38
2022-08-18T03:10:34.045Z,21.35
2022-08-18T03:11:30.902Z,21.28
2022-08-18T03:12:30.893Z,21.32
2022-08-18T03:13:30.872Z,21.29
2022-08-18T03:14:30.857Z,21.22
2022-08-18T03:15:30.843Z,21.13
2022-08-18T03:16:30.825Z,21.11
2022-08-18T03:17:30.809Z,21.10
2022-08-18T03:18:30.835Z,21.07
2022-08-18T03:19:30.777Z,21.03
2022-08-18T03:20:31.567Z,21.03
2022-08-18T03:21:30.753Z,20.98
2022-08-18T03:22:31.075Z,20.89
2022-08-18T03:23:30.714Z,20.89
2022-08-18T03:24:30.704Z,20.83
2022-08-18T03:25:30.682Z,20.86
2022-08-18T03:26:30.673Z,20.90
2022-08-18T03:27:30.650Z,20.82
2022-08-18T03:28:30.641Z,20.80
2022-08-18T03:29:32.776Z,20.82
2022-08-18T03:30:30.602Z,20.80
2022-08-18T03:31:30.601Z,20.77
2022-08-18T03:32:30.576Z,20.80
2022-08-18T03:33:30.557Z,20.74
2022-08-18T03:34:30.542Z,20.71
2022-08-18T03:35:30.522Z,20.77
2022-08-18T03:36:30.509Z,20.71
2022-08-18T03:37:30.493Z,20.78
2022-08-18T03:38:30.477Z,20.73
2022-08-18T03:39:30.543Z,20.80
2022-08-18T03:40:30.446Z,20.77
2022-08-18T03:41:44.081Z,20.71
2022-08-18T03:42:30.414Z,20.73
2022-08-18T03:43:50.708Z,20.75
2022-08-18T03:44:30.424Z,20.78
2022-08-18T03:45:30.366Z,20.75
2022-08-18T03:46:30.350Z,20.73
2022-08-18T03:47:30.334Z,20.77
2022-08-18T03:48:30.319Z,20.82
2022-08-18T03:49:30.301Z,20.71
2022-08-18T03:50:30.287Z,20.74
2022-08-18T03:51:30.270Z,20.77
2022-08-18T03:52:30.257Z,20.77
2022-08-18T03:53:30.240Z,20.74
2022-08-18T03:54:30.225Z,20.71
2022-08-18T03:55:30.205Z,20.73
2022-08-18T03:56:30.193Z,20.78
2022-08-18T03:57:30.178Z,20.77
2022-08-18T03:58:30.164Z,20.71
2022-08-18T03:59:30.145Z,20.74
2022-08-18T04:00:30.148Z,20.77
2022-08-18T04:01:30.240Z,20.80
2022-08-18T04:02:30.100Z,20.70
2022-08-18T04:03:30.083Z,20.75
2022-08-18T04:04:30.065Z,20.78
2022-08-18T04:05:30.051Z,20.75
2022-08-18T04:06:30.637Z,20.71
2022-08-18T04:07:30.019Z,20.68
2022-08-18T04:08:30.002Z,20.68
2022-08-18T04:09:29.994Z,20.66
2022-08-18T04:10:29.970Z,20.67
2022-08-18T04:11:29.958Z,20.64
2022-08-18T04:12:29.939Z,20.60
2022-08-18T04:13:29.924Z,20.70
2022-08-18T04:14:29.911Z,20.58
2022-08-18T04:15:29.896Z,20.56
2022-08-18T04:16:29.875Z,20.58
2022-08-18T04:17:29.863Z,20.58
2022-08-18T04:18:29.842Z,20.59
2022-08-18T04:19:29.831Z,20.55
2022-08-18T04:20:29.815Z,20.58
2022-08-18T04:21:29.802Z,20.59
2022-08-18T04:22:29.781Z,20.60
2022-08-18T04:23:29.768Z,20.60
2022-08-18T04:24:31.163Z,20.59
2022-08-18T04:25:32.848Z,20.58
2022-08-18T04:26:29.715Z,20.58
2022-08-18T04:27:29.713Z,20.55
2022-08-18T04:28:29.687Z,20.58
2022-08-18T04:29:29.674Z,20.55
2022-08-18T04:30:29.654Z,20.58
2022-08-18T04:31:29.652Z,20.56
2022-08-18T04:32:29.989Z,20.58
2022-08-18T04:33:29.611Z,20.66
2022-08-18T04:34:29.592Z,20.58
2022-08-18T04:35:29.574Z,20.46
2022-08-18T04:36:29.558Z,20.58
2022-08-18T04:37:29.543Z,20.58
2022-08-18T04:38:29.527Z,20.55
2022-08-18T04:39:29.596Z,20.52
2022-08-18T04:40:29.611Z,20.56
2022-08-18T04:41:29.518Z,20.58
2022-08-18T04:42:29.463Z,20.40
2022-08-18T04:43:29.450Z,20.48
2022-08-18T04:44:29.439Z,20.50
2022-08-18T04:45:29.616Z,20.56
2022-08-18T04:46:29.398Z,20.49
2022-08-18T04:47:29.385Z,20.49
2022-08-18T04:48:29.370Z,20.55
2022-08-18T04:49:29.354Z,20.58
2022-08-18T04:50:29.334Z,20.48
2022-08-18T04:52:37.041Z,20.50
2022-08-18T04:52:40.629Z,20.40
2022-08-18T04:53:29.292Z,20.55
2022-08-18T04:54:29.271Z,20.63
2022-08-18T04:55:29.262Z,20.50
2022-08-18T04:56:29.240Z,20.46
2022-08-18T04:57:29.234Z,20.50
2022-08-18T04:58:29.212Z,20.56
2022-08-18T04:59:29.194Z,20.58
2022-08-18T05:00:29.179Z,20.55
2022-08-18T05:01:29.191Z,20.52
2022-08-18T05:02:29.147Z,20.58
2022-08-18T05:03:29.130Z,20.56
2022-08-18T05:04:29.115Z,20.58
2022-08-18T05:05:29.097Z,20.48
2022-08-18T05:06:29.080Z,20.58
2022-08-18T05:07:29.072Z,20.58
2022-08-18T05:08:29.048Z,20.58
2022-08-18T05:09:29.034Z,20.52
2022-08-18T05:10:29.018Z,20.55
2022-08-18T05:11:29.028Z,20.58
2022-08-18T05:12:29.006Z,20.58
2022-08-18T05:13:29.304Z,20.55
2022-08-18T05:14:28.953Z,20.58
2022-08-18T05:15:38.323Z,20.60
2022-08-18T05:16:28.923Z,20.55
2022-08-18T05:18:28.893Z,20.56
2022-08-18T05:19:28.872Z,20.58
2022-08-18T05:20:29.062Z,20.64
2022-08-18T05:21:28.841Z,20.53
2022-08-18T05:22:30.887Z,20.55
2022-08-18T05:23:29.036Z,20.58
2022-08-18T05:24:34.054Z,20.56
2022-08-18T05:25:28.778Z,20.56
2022-08-18T05:26:28.763Z,20.60
2022-08-18T05:27:28.746Z,20.67
2022-08-18T05:28:28.733Z,20.67
2022-08-18T05:29:28.914Z,20.67
2022-08-18T05:31:28.716Z,20.64
2022-08-18T05:32:38.253Z,20.64
2022-08-18T05:34:28.637Z,20.67
2022-08-18T05:35:28.644Z,20.67
2022-08-18T05:36:28.638Z,20.70
2022-08-18T05:37:29.021Z,20.75
2022-08-18T05:38:28.600Z,20.75
2022-08-18T05:39:28.626Z,20.73
2022-08-18T05:40:28.874Z,20.74
2022-08-18T05:41:28.753Z,20.74
2022-08-18T05:43:28.724Z,20.75
2022-08-18T05:44:28.706Z,20.82
2022-08-18T05:45:28.496Z,20.74
2022-08-18T05:46:28.470Z,20.78
2022-08-18T05:47:28.658Z,20.75
2022-08-18T05:49:28.625Z,20.70
2022-08-18T05:50:28.405Z,20.80
2022-08-18T05:51:28.395Z,20.88
2022-08-18T05:52:28.374Z,20.82
2022-08-18T05:53:28.566Z,20.80
2022-08-18T05:54:28.352Z,20.73
2022-08-18T05:55:28.330Z,20.88
2022-08-18T05:56:28.716Z,20.85
2022-08-18T05:59:28.673Z,20.90
2022-08-18T06:00:28.686Z,20.85
2022-08-18T06:02:28.218Z,20.88
2022-08-18T06:05:28.375Z,20.90
2022-08-18T06:06:28.158Z,20.90
2022-08-18T06:07:28.543Z,20.93
2022-08-18T06:08:28.328Z,20.93
2022-08-18T06:09:28.380Z,20.89
2022-08-18T06:10:28.601Z,20.90
2022-08-18T06:12:28.059Z,20.95
2022-08-18T06:13:28.256Z,20.90
2022-08-18T06:14:28.026Z,20.95
2022-08-18T06:15:28.210Z,20.96
2022-08-18T06:16:27.967Z,21.03
2022-08-18T06:17:27.955Z,21.03
2022-08-18T06:18:27.936Z,21.01
2022-08-18T06:19:27.948Z,21.04
2022-08-18T06:20:27.977Z,20.98
2022-08-18T06:21:27.921Z,21.00
2022-08-18T06:22:30.553Z,20.96
2022-08-18T06:23:27.860Z,21.00
2022-08-18T06:24:27.844Z,21.01
2022-08-18T06:25:28.064Z,21.01
2022-08-18T06:26:28.037Z,21.01
2022-08-18T06:27:27.824Z,21.03
2022-08-18T06:28:27.801Z,21.05
2022-08-18T06:29:27.966Z,21.04
2022-08-18T06:30:27.768Z,21.03
2022-08-18T06:31:29.568Z,21.01
2022-08-18T06:32:28.451Z,21.04
2022-08-18T06:33:28.135Z,21.03
2022-08-18T06:35:27.690Z,21.05
2022-08-18T06:36:27.881Z,20.98
2022-08-18T06:37:27.660Z,20.98
2022-08-18T06:38:27.619Z,20.98
2022-08-18T06:39:27.695Z,20.88
2022-08-18T06:40:29.026Z,20.86
2022-08-18T06:41:40.393Z,20.92
2022-08-18T06:42:27.787Z,20.88
2022-08-18T06:43:27.870Z,20.89
2022-08-18T06:44:27.764Z,20.92
2022-08-18T06:45:34.021Z,20.93
2022-08-18T06:46:27.526Z,20.89
2022-08-18T06:47:27.501Z,20.93
2022-08-18T06:48:27.798Z,20.88
2022-08-18T06:49:28.181Z,20.93
2022-08-18T06:50:27.975Z,20.96
2022-08-18T06:52:27.437Z,20.93
2022-08-18T06:53:28.399Z,20.96
2022-08-18T06:54:28.474Z,20.95
2022-08-18T06:55:27.576Z,20.93
2022-08-18T06:56:27.560Z,20.95
2022-08-18T06:57:27.320Z,20.89
2022-08-18T06:58:27.530Z,20.98
2022-08-18T06:59:27.287Z,20.88
2022-08-18T07:00:27.271Z,21.00
2022-08-18T07:01:27.303Z,20.90
2022-08-18T07:02:27.235Z,20.92
2022-08-18T07:03:27.220Z,20.95
2022-08-18T07:04:27.237Z,20.85
2022-08-18T07:05:27.192Z,20.93
2022-08-18T07:06:27.198Z,20.86
2022-08-18T07:07:27.183Z,20.85
2022-08-18T07:08:27.173Z,20.88
2022-08-18T07:09:27.153Z,20.90
2022-08-18T07:10:27.106Z,20.89
2022-08-18T07:11:27.325Z,20.86
2022-08-18T07:12:32.251Z,20.73
2022-08-18T07:13:27.107Z,20.85
2022-08-18T07:14:27.274Z,20.75
2022-08-18T07:15:27.062Z,20.80
2022-08-18T07:16:47.408Z,20.75
2022-08-18T07:17:52.909Z,20.82
2022-08-18T07:18:27.013Z,20.75
2022-08-18T07:19:26.998Z,20.82
2022-08-18T07:20:26.975Z,20.75
2022-08-18T07:21:27.296Z,20.80
2022-08-18T07:22:30.082Z,20.85
2022-08-18T07:23:27.133Z,20.78
2022-08-18T07:24:26.914Z,20.85
2022-08-18T07:26:27.083Z,20.92
2022-08-18T07:27:27.068Z,20.86
2022-08-18T07:28:26.849Z,20.90
2022-08-18T07:29:26.835Z,20.88
2022-08-18T07:30:27.132Z,20.92
2022-08-18T07:31:27.203Z,20.93
2022-08-18T07:33:26.847Z,20.93
2022-08-18T07:34:26.764Z,20.92
2022-08-18T07:35:26.745Z,20.88
2022-08-18T07:36:27.586Z,20.89
2022-08-18T07:37:29.008Z,20.95
2022-08-18T07:38:43.835Z,20.96
2022-08-18T07:39:27.103Z,20.98
2022-08-18T07:40:26.657Z,20.98
2022-08-18T07:41:26.874Z,21.08
2022-08-18T07:42:50.623Z,20.96
2022-08-18T07:43:26.694Z,20.96
2022-08-18T07:44:26.801Z,21.00
2022-08-18T07:45:26.727Z,20.96
2022-08-18T07:46:27.376Z,20.98
2022-08-18T07:48:38.279Z,20.98
2022-08-18T07:49:26.545Z,20.98
2022-08-18T07:50:55.183Z,20.98
2022-08-18T07:51:26.741Z,20.96
2022-08-18T07:52:44.162Z,20.96
2022-08-18T07:54:48.262Z,20.95
2022-08-18T07:55:26.696Z,20.95
2022-08-18T07:56:26.444Z,20.95
2022-08-18T07:57:26.434Z,21.00
2022-08-18T07:58:26.831Z,20.96
2022-08-18T07:59:26.357Z,21.05
2022-08-18T08:00:55.289Z,21.04
2022-08-18T08:02:26.372Z,21.03
2022-08-18T08:03:26.523Z,21.04
2022-08-18T08:04:27.219Z,21.07
2022-08-18T08:05:26.755Z,21.03
2022-08-18T08:06:26.519Z,21.03
2022-08-18T08:07:26.598Z,21.05
2022-08-18T08:08:26.254Z,21.03
2022-08-18T08:09:26.211Z,21.01
2022-08-18T08:10:26.254Z,21.13
2022-08-18T08:11:26.197Z,21.14
2022-08-18T08:13:53.641Z,21.17
2022-08-18T08:16:26.623Z,21.14
2022-08-18T08:17:26.754Z,21.20
2022-08-18T08:18:26.066Z,21.22
2022-08-18T08:19:49.359Z,21.30
2022-08-18T08:20:26.244Z,21.26
2022-08-18T08:21:26.017Z,21.29
2022-08-18T08:22:26.020Z,21.37
2022-08-18T08:23:26.180Z,21.35
2022-08-18T08:24:26.568Z,21.35
2022-08-18T08:25:45.736Z,21.28
2022-08-18T08:27:26.325Z,21.32
2022-08-18T08:28:26.103Z,21.29
2022-08-18T08:29:26.165Z,21.32
2022-08-18T08:30:28.470Z,21.32
2022-08-18T08:31:36.827Z,21.22
2022-08-18T08:32:25.872Z,21.26
2022-08-18T08:35:49.933Z,21.23
2022-08-18T08:37:25.753Z,21.23
2022-08-18T08:38:42.948Z,21.25
2022-08-18T08:40:25.715Z,21.29
2022-08-18T08:41:25.974Z,21.38
2022-08-18T08:43:25.918Z,21.35
2022-08-18T08:45:25.676Z,21.28
2022-08-18T08:46:26.008Z,21.33
2022-08-18T08:47:25.722Z,21.40
2022-08-18T08:48:26.459Z,21.33
2022-08-18T08:50:25.542Z,21.41
2022-08-18T08:54:25.886Z,21.33
2022-08-18T08:56:25.450Z,21.32
2022-08-18T08:57:25.742Z,21.40
2022-08-18T08:58:25.423Z,21.37
2022-08-18T09:01:25.863Z,21.38
2022-08-18T09:02:46.720Z,21.29
2022-08-18T09:03:30.550Z,21.32
2022-08-18T09:05:25.366Z,21.30
2022-08-18T09:06:25.699Z,21.35
2022-08-18T09:07:25.292Z,21.33
2022-08-18T09:08:25.275Z,21.30
2022-08-18T09:09:25.251Z,21.33
2022-08-18T09:11:25.219Z,21.37
2022-08-18T09:12:25.402Z,21.43
2022-08-18T09:14:25.168Z,21.40
2022-08-18T09:15:25.381Z,21.44
2022-08-18T09:16:27.826Z,21.44
2022-08-18T09:17:28.345Z,21.54
2022-08-18T09:19:25.310Z,21.53
2022-08-18T09:20:25.075Z,21.56
2022-08-18T09:21:25.667Z,21.54
2022-08-18T09:22:25.247Z,21.50
2022-08-18T09:25:25.196Z,21.69
2022-08-18T09:26:25.589Z,21.59
2022-08-18T09:28:24.942Z,21.62
2022-08-18T09:29:25.136Z,21.62
2022-08-18T09:30:25.392Z,21.69
2022-08-18T09:31:25.710Z,21.66
2022-08-18T09:33:25.069Z,21.80
2022-08-18T09:34:25.259Z,21.80
2022-08-18T09:35:26.451Z,21.74
2022-08-18T09:36:25.783Z,21.81
2022-08-18T09:38:26.023Z,21.85
2022-08-18T09:40:44.378Z,21.84
2022-08-18T09:41:24.945Z,21.85
2022-08-18T09:42:30.107Z,21.85
2022-08-18T09:43:25.567Z,21.83
2022-08-18T09:44:26.692Z,21.85
2022-08-18T09:45:24.677Z,21.84
2022-08-18T09:46:24.865Z,21.84
2022-08-18T09:47:27.546Z,21.85
2022-08-18T09:49:26.461Z,21.88
2022-08-18T09:50:27.035Z,21.97
2022-08-18T09:51:24.789Z,21.99
2022-08-18T09:52:25.537Z,21.97
2022-08-18T09:53:24.959Z,22.01
2022-08-18T09:54:25.328Z,22.03
2022-08-18T09:55:25.029Z,21.97
2022-08-18T09:56:28.580Z,22.01
2022-08-18T09:57:25.203Z,21.96
2022-08-18T09:58:25.781Z,22.03
2022-08-18T09:59:24.867Z,22.00
2022-08-18T10:00:26.566Z,21.97
2022-08-18T10:01:24.505Z,22.03
2022-08-18T10:03:25.519Z,22.10
2022-08-18T10:04:28.933Z,22.22
2022-08-18T10:06:27.561Z,22.18
2022-08-18T10:07:24.539Z,22.25
2022-08-18T10:09:35.954Z,22.25
2022-08-18T10:10:59.355Z,22.37
2022-08-18T10:11:25.287Z,22.37
2022-08-18T10:13:24.738Z,22.41
2022-08-18T10:14:25.109Z,22.46
2022-08-18T10:15:33.184Z,22.49
2022-08-18T10:17:24.844Z,22.62
2022-08-18T10:20:26.612Z,22.71
2022-08-18T10:21:24.604Z,22.81
2022-08-18T10:23:24.059Z,22.98
2022-08-18T10:24:35.145Z,23.04
2022-08-18T10:25:24.462Z,22.95
2022-08-18T10:26:24.690Z,22.99
2022-08-18T10:27:24.299Z,23.01
2022-08-18T10:28:25.232Z,23.04
2022-08-18T10:29:23.996Z,23.07
2022-08-18T10:30:24.185Z,23.11
2022-08-18T10:31:27.301Z,23.08
2022-08-18T10:32:24.158Z,23.01
2022-08-18T10:33:23.931Z,23.01
2022-08-18T10:34:24.678Z,23.08
2022-08-18T10:35:29.131Z,23.14
2022-08-18T10:37:26.003Z,23.02
2022-08-18T10:40:26.499Z,23.11
2022-08-18T10:41:24.020Z,23.16
2022-08-18T10:42:24.161Z,23.20
2022-08-18T10:44:29.089Z,23.25
2022-08-18T10:47:24.882Z,23.32
2022-08-18T10:48:24.337Z,23.29
2022-08-18T10:49:23.686Z,23.25
2022-08-18T10:50:23.671Z,23.36
2022-08-18T10:51:23.660Z,23.37
2022-08-18T10:54:23.613Z,23.42
2022-08-18T10:55:23.598Z,23.39
2022-08-18T10:59:28.087Z,23.52
2022-08-18T11:00:23.697Z,23.66
2022-08-18T11:01:23.575Z,23.64
2022-08-18T11:02:23.576Z,23.62
2022-08-18T11:03:52.196Z,23.66
2022-08-18T11:04:33.473Z,23.70
2022-08-18T11:05:23.464Z,23.74
2022-08-18T11:06:23.500Z,23.82
2022-08-18T11:08:23.412Z,23.84
2022-08-18T11:09:23.387Z,23.82
2022-08-18T11:10:30.951Z,23.96
2022-08-18T11:11:37.050Z,23.99
2022-08-18T11:12:23.401Z,23.99
2022-08-18T11:13:23.330Z,24.06
2022-08-18T11:14:23.289Z,24.09
2022-08-18T11:15:24.064Z,24.09
2022-08-18T11:16:23.270Z,24.14
2022-08-18T11:18:23.257Z,24.16
2022-08-18T11:19:23.414Z,24.07
2022-08-18T11:21:23.183Z,24.11
2022-08-18T11:22:31.174Z,24.10
2022-08-18T11:23:23.358Z,24.11
2022-08-18T11:25:23.966Z,23.99
2022-08-18T11:30:31.084Z,24.07
2022-08-18T11:32:23.108Z,24.04
2022-08-18T11:35:23.499Z,24.09
2022-08-18T11:39:35.965Z,24.31
2022-08-18T11:41:02.409Z,24.18
2022-08-18T11:42:25.287Z,24.31
2022-08-18T11:43:23.839Z,24.31
2022-08-18T11:44:23.125Z,24.29
2022-08-18T11:46:28.299Z,24.18
2022-08-18T11:48:29.780Z,24.25
2022-08-18T11:55:24.532Z,24.09
2022-08-18T11:56:27.089Z,24.04
2022-08-18T11:57:22.649Z,23.96
2022-08-18T11:58:23.057Z,23.94
2022-08-18T11:59:22.638Z,24.04
2022-08-18T12:00:23.809Z,24.06
2022-08-18T12:01:22.587Z,24.10
2022-08-18T12:02:22.571Z,24.18
2022-08-18T12:03:22.559Z,24.10
2022-08-18T12:04:22.544Z,24.16
2022-08-18T12:05:22.532Z,24.21
2022-08-18T12:06:26.754Z,24.28
2022-08-18T12:07:22.510Z,24.19
2022-08-18T12:10:04.576Z,24.26
2022-08-18T12:10:26.542Z,24.26
2022-08-18T12:11:26.680Z,24.32
2022-08-18T12:12:22.450Z,24.31
2022-08-18T12:13:22.628Z,24.32
2022-08-18T12:14:31.154Z,24.36
2022-08-18T12:15:24.682Z,24.43
2022-08-18T12:16:22.387Z,24.37
2022-08-18T12:17:22.355Z,24.36
2022-08-18T12:18:28.415Z,24.31
2022-08-18T12:19:22.360Z,24.41
2022-08-18T12:20:22.588Z,24.38
2022-08-18T12:21:22.294Z,24.43
2022-08-18T12:22:22.296Z,24.46
2022-08-18T12:23:22.273Z,24.46
2022-08-18T12:24:26.456Z,24.47
2022-08-18T12:25:24.918Z,24.46
2022-08-18T12:26:38.878Z,24.58
2022-08-18T12:27:22.452Z,24.58
2022-08-18T12:28:22.783Z,24.62
2022-08-18T12:29:22.177Z,24.55
2022-08-18T12:30:22.167Z,24.59
2022-08-18T12:31:22.157Z,24.51
2022-08-18T12:32:48.977Z,24.53
2022-08-18T12:34:24.958Z,24.66
2022-08-18T12:35:22.641Z,24.63
2022-08-18T12:36:22.115Z,24.62
2022-08-18T12:38:22.044Z,24.65
2022-08-18T12:39:22.034Z,24.63
2022-08-18T12:40:22.148Z,24.63
2022-08-18T12:42:21.984Z,24.65
2022-08-18T12:43:21.978Z,24.79
2022-08-18T12:44:21.960Z,24.69
2022-08-18T12:45:21.954Z,24.66
2022-08-18T12:46:21.932Z,24.74
2022-08-18T12:47:21.953Z,24.81
2022-08-18T12:48:22.241Z,24.63
2022-08-18T12:49:21.886Z,24.81
2022-08-18T12:51:24.871Z,24.93
2022-08-18T12:52:21.885Z,24.89
2022-08-18T12:53:29.571Z,24.88
2022-08-18T12:54:21.817Z,24.86
2022-08-18T12:55:22.480Z,24.89
2022-08-18T12:56:21.832Z,25.00
2022-08-18T12:57:27.685Z,24.94
2022-08-18T12:58:21.814Z,24.81
2022-08-18T12:59:21.782Z,25.03
2022-08-18T13:01:23.614Z,25.03
2022-08-18T13:02:21.694Z,24.99
2022-08-18T13:03:21.716Z,24.88
2022-08-18T13:04:21.674Z,24.88
2022-08-18T13:05:26.291Z,24.88
2022-08-18T13:06:21.636Z,24.81
2022-08-18T13:07:22.343Z,24.77
2022-08-18T13:08:30.284Z,24.85
2022-08-18T13:09:35.088Z,24.71
2022-08-18T13:10:45.956Z,24.66
2022-08-18T13:11:24.913Z,24.71
2022-08-18T13:12:21.560Z,24.61
2022-08-18T13:13:21.537Z,24.61
2022-08-18T13:14:21.552Z,24.71
2022-08-18T13:15:21.506Z,24.66
2022-08-18T13:16:39.102Z,24.69
2022-08-18T13:17:32.803Z,24.71
2022-08-18T13:18:21.464Z,24.66
2022-08-18T13:19:21.465Z,24.71
2022-08-18T13:20:21.434Z,24.78
2022-08-18T13:21:21.421Z,24.68
2022-08-18T13:22:21.403Z,24.77
2022-08-18T13:23:24.894Z,24.84
2022-08-18T13:24:22.210Z,24.89
2022-08-18T13:25:32.974Z,24.79
2022-08-18T13:26:21.452Z,24.81
2022-08-18T13:27:22.957Z,24.79
2022-08-18T13:28:21.362Z,24.84
2022-08-18T13:29:21.309Z,24.88
2022-08-18T13:30:30.349Z,24.86
2022-08-18T13:31:21.282Z,24.84
2022-08-18T13:32:21.677Z,24.89
2022-08-18T13:33:35.088Z,24.85
2022-08-18T13:34:21.266Z,24.86
2022-08-18T13:35:21.285Z,24.82
2022-08-18T13:36:22.360Z,24.81
2022-08-18T13:37:21.260Z,24.81
2022-08-18T13:38:22.068Z,24.86
2022-08-18T13:39:21.185Z,24.71
2022-08-18T13:40:21.308Z,24.78
2022-08-18T13:41:21.201Z,24.62
2022-08-18T13:42:21.707Z,24.69
2022-08-18T13:43:23.255Z,24.75
2022-08-18T13:44:21.101Z,24.68
2022-08-18T13:45:24.869Z,24.71
2022-08-18T13:46:24.088Z,24.86
2022-08-18T13:47:21.090Z,24.88
2022-08-18T13:48:21.055Z,24.79
2022-08-18T13:49:24.032Z,24.82
2022-08-18T13:50:21.053Z,24.88
2022-08-18T13:51:20.990Z,24.88
2022-08-18T13:52:33.495Z,24.85
2022-08-18T13:53:21.075Z,24.86
2022-08-18T13:54:30.950Z,24.97
2022-08-18T13:55:21.018Z,24.89
2022-08-18T13:56:21.037Z,24.86
2022-08-18T13:57:20.964Z,25.00
2022-08-18T13:58:21.367Z,24.96
2022-08-18T13:59:20.955Z,24.88
2022-08-18T14:01:44.207Z,24.97
2022-08-18T14:02:26.995Z,24.99
2022-08-18T14:03:42.759Z,25.00
2022-08-18T14:04:21.125Z,24.97
2022-08-18T14:05:20.829Z,25.06
2022-08-18T14:06:22.619Z,25.03
2022-08-18T14:07:24.680Z,25.06
2022-08-18T14:08:20.798Z,24.99
2022-08-18T14:09:36.720Z,25.03
2022-08-18T14:10:20.759Z,24.94
2022-08-18T14:11:20.705Z,25.03
2022-08-18T14:12:23.131Z,25.06
2022-08-18T14:13:24.343Z,25.06
2022-08-18T14:14:20.711Z,25.03
2022-08-18T14:15:20.683Z,25.09
2022-08-18T14:17:22.496Z,24.99
2022-08-18T14:18:20.601Z,24.97
2022-08-18T14:19:22.820Z,25.03
2022-08-18T14:20:22.316Z,24.99
2022-08-18T14:21:22.977Z,25.04
2022-08-18T14:22:20.877Z,25.01
2022-08-18T14:23:23.454Z,25.00
2022-08-18T14:24:20.544Z,25.01
2022-08-18T14:25:22.247Z,24.88
2022-08-18T14:26:20.519Z,24.93
2022-08-18T14:27:20.497Z,25.01
2022-08-18T14:28:24.484Z,25.01